Time;durP1;ratioP1;P1;durP2;ratioP2;P2;SDS_P1;SDS_P2;PMS_P1;PMS_P2;Temp;Humidity;BMP_temperature;BMP_pressure;BME280_temperature;BME280_humidity;BME280_pressure;Samples;Min_cycle;Max_cycle;Signal;HPM_P1;HPM_P2
2023/12/12 00:00:16;;;;;;;12.13;4.15;;;;;;;7.30;100.00;100679.59;6309902;22;20011;-96
2023/12/12 00:06:32;;;;;;;;;;;;;;;;;;;;;
2023/12/12 00:10:23;;;;;;;11.20;4.22;;;;;;;7.31;100.00;100690.13;6261297;22;20181;-96
2023/12/12 00:13:22;;;;;;;14.57;4.53;;;;;;;7.20;100.00;100676.75;6326894;22;19992;-96
2023/12/12 00:23:14;;;;;;;;;;;;;;;;;;;;;
2023/12/12 00:29:12;;;;;;;14.85;4.40;;;;;;;7.35;100.00;100696.34;6225997;23;20012;-95
2023/12/12 00:32:38;;;;;;;;;;;;;;;;;;;;;
2023/12/12 00:35:36;;;;;;;13.38;4.10;;;;;;;7.62;100.00;100751.22;6280240;22;20093;-96
2023/12/12 00:38:59;;;;;;;15.68;4.32;;;;;;;7.34;100.00;100686.69;6206028;23;20039;-96
2023/12/12 00:42:04;;;;;;;;;;;;;;;;;;;;;
2023/12/12 00:45:13;;;;;;;;;;;;;;;;;;;;;
2023/12/12 00:48:32;;;;;;;13.10;4.50;;;;;;;7.32;100.00;100696.25;6327089;22;20011;-96
2023/12/12 00:51:47;;;;;;;;;;;;;;;;;;;;;
2023/12/12 00:54:30;;;;;;;12.18;4.45;;;;;;;7.45;100.00;100714.06;6257692;22;20037;-96
2023/12/12 00:57:46;;;;;;;;;;;;;;;;;;;;;
2023/12/12 01:04:49;;;;;;;;;;;;;;;;;;;;;
2023/12/12 01:08:14;;;;;;;;;;;;;;;;;;;;;
2023/12/12 01:11:06;;;;;;;14.98;4.50;;;;;;;7.48;100.00;100733.41;6309630;22;20394;-96
2023/12/12 01:17:38;;;;;;;;;;;;;;;;;;;;;
2023/12/12 01:23:47;;;;;;;18.33;5.10;;;;;;;7.13;100.00;100693.22;6309601;22;20007;-96
2023/12/12 01:26:54;;;;;;;;;;;;;;;;;;;;;
2023/12/12 01:33:23;;;;;;;;;;;;;;;;;;;;;
2023/12/12 01:46:15;;;;;;;16.90;4.27;;;;;;;6.76;100.00;100639.88;6283092;22;20003;-96
2023/12/12 01:49:34;;;;;;;;;;;;;;;;;;;;;
2023/12/12 01:52:46;;;;;;;;;;;;;;;;;;;;;
2023/12/12 02:02:37;;;;;;;;;;;;;;;;;;;;;
2023/12/12 02:06:02;;;;;;;;;;;;;;;;;;;;;
2023/12/12 02:23:19;;;;;;;22.67;3.92;;;;;;;6.63;100.00;100634.31;6124968;23;20088;-96
2023/12/12 02:29:38;;;;;;;18.92;4.72;;;;;;;6.52;100.00;100627.06;6275114;22;20007;-96
2023/12/12 02:42:28;;;;;;;;;;;;;;;;;;;;;
2023/12/12 02:55:24;;;;;;;17.77;4.32;;;;;;;6.25;100.00;100593.19;6280302;22;20099;-96
2023/12/12 02:58:39;;;;;;;27.42;4.70;;;;;;;6.40;100.00;100625.91;6226546;22;20015;-96
2023/12/12 03:01:49;;;;;;;19.67;4.38;;;;;;;6.69;100.00;100685.22;6253119;22;20042;-96
2023/12/12 03:05:09;;;;;;;;;;;;;;;;;;;;;
2023/12/12 03:14:46;;;;;;;22.33;4.47;;;;;;;6.65;100.00;100685.13;6054123;23;20015;-96
2023/12/12 03:28:39;;;;;;;;;;;;;;;;;;;;;
2023/12/12 03:31:44;;;;;;;;;;;;;;;;;;;;;
2023/12/12 03:34:57;;;;;;;;;;;;;;;;;;;;;
2023/12/12 03:37:47;;;;;;;29.00;5.72;;;;;;;6.51;100.00;100648.06;6074704;23;20058;-96
2023/12/12 03:44:07;;;;;;;23.00;4.78;;;;;;;6.11;100.00;100567.47;6154790;23;20013;-96
2023/12/12 03:47:26;;;;;;;;;;;;;;;;;;;;;
2023/12/12 03:50:09;;;;;;;22.98;4.82;;;;;;;6.26;100.00;100581.84;6265105;22;20043;-96
2023/12/12 03:53:29;;;;;;;;;;;;;;;;;;;;;
2023/12/12 04:00:19;;;;;;;;;;;;;;;;;;;;;
2023/12/12 04:06:35;;;;;;;;;;;;;;;;;;;;;
2023/12/12 04:12:59;;;;;;;;;;;;;;;;;;;;;
2023/12/12 04:15:50;;;;;;;26.40;5.63;;;;;;;6.52;100.00;100586.81;6215035;23;20087;-96
2023/12/12 04:18:47;;;;;;;;;;;;;;;;;;;;;
2023/12/12 04:21:35;;;;;;;17.23;4.72;;;;;;;6.17;100.00;100538.78;6221570;22;20383;-96
2023/12/12 04:24:32;;;;;;;21.73;5.47;;;;;;;6.48;100.00;100572.72;6281304;22;20011;-96
2023/12/12 04:27:57;;;;;;;18.05;4.72;;;;;;;6.33;100.00;100545.25;6276206;22;20007;-95
2023/12/12 04:31:06;;;;;;;;;;;;;;;;;;;;;
2023/12/12 04:34:20;;;;;;;18.75;4.30;;;;;;;6.67;100.00;100615.16;6287941;22;20083;-96
2023/12/12 04:40:31;;;;;;;;;;;;;;;;;;;;;
2023/12/12 04:43:13;;;;;;;21.38;4.72;;;;;;;6.72;100.00;100610.88;6285633;22;20094;-96
2023/12/12 04:46:01;;;;;;;24.67;5.55;;;;;;;6.76;100.00;100592.59;6285026;22;20010;-96
2023/12/12 04:49:26;;;;;;;;;;;;;;;;;;;;;
2023/12/12 04:55:40;;;;;;;26.58;5.47;;;;;;;6.37;100.00;100512.97;6268889;22;20020;-96
2023/12/12 05:01:49;;;;;;;;;;;;;;;;;;;;;
2023/12/12 05:04:28;;;;;;;28.50;5.60;;;;;;;6.23;100.00;100494.31;6278904;22;20083;-95
2023/12/12 05:07:38;;;;;;;21.77;6.00;;;;;;;6.68;100.00;100567.94;6252300;22;20058;-96
2023/12/12 05:10:32;;;;;;;22.38;5.60;;;;;;;6.53;100.00;100539.59;6251554;22;20086;-95
2023/12/12 05:13:10;;;;;;;;;;;;;;;;;;;;;
2023/12/12 05:16:13;;;;;;;26.38;5.35;;;;;;;6.35;100.00;100491.06;6280951;22;20087;-96
2023/12/12 05:19:21;;;;;;;;;;;;;;;;;;;;;
2023/12/12 05:25:42;;;;;;;;;;;;;;;;;;;;;
2023/12/12 05:28:48;;;;;;;20.33;5.05;;;;;;;6.75;100.00;100545.31;6280308;22;20090;-96
2023/12/12 05:31:41;;;;;;;23.23;5.28;;;;;;;6.35;100.00;100465.72;6157012;23;20074;-96
2023/12/12 05:34:40;;;;;;;22.45;5.45;;;;;;;6.36;100.00;100479.72;6186370;22;20353;-96
2023/12/12 05:37:21;;;;;;;21.80;5.13;;;;;;;6.82;100.00;100562.97;6278632;22;20007;-96
2023/12/12 05:40:33;;;;;;;;;;;;;;;;;;;;;
2023/12/12 05:43:09;;;;;;;30.90;6.83;;;;;;;6.85;100.00;100557.81;6269717;22;20079;-96
2023/12/12 05:46:10;;;;;;;;;;;;;;;;;;;;;
2023/12/12 05:48:49;;;;;;;23.40;5.20;;;;;;;6.78;100.00;100554.16;6270778;22;20095;-96
2023/12/12 05:51:39;;;;;;;;;;;;;;;;;;;;;
2023/12/12 05:54:54;;;;;;;27.80;5.18;;;;;;;6.59;100.00;100517.81;6264286;22;20369;-96
2023/12/12 06:00:51;;;;;;;21.40;5.88;;;;;;;6.54;100.00;100501.09;6269223;22;20007;-96
2023/12/12 06:03:50;;;;;;;;;;;;;;;;;;;;;
2023/12/12 06:06:30;;;;;;;25.00;5.45;;;;;;;6.81;100.00;100549.78;6258618;22;20313;-96
2023/12/12 06:09:16;;;;;;;26.70;5.75;;;;;;;6.68;100.00;100525.00;6253729;22;20430;-96
2023/12/12 06:12:19;;;;;;;25.85;5.78;;;;;;;6.33;100.00;100470.03;6279180;22;20083;-96
2023/12/12 06:15:06;;;;;;;;;;;;;;;;;;;;;
2023/12/12 06:21:32;;;;;;;26.50;5.43;;;;;;;6.80;100.00;100533.16;6283210;22;20007;-96
2023/12/12 06:24:45;;;;;;;24.58;5.57;;;;;;;6.42;100.00;100461.47;6272264;22;20062;-96
2023/12/12 06:36:43;;;;;;;;;;;;;;;;;;;;;
2023/12/12 06:40:08;;;;;;;;;;;;;;;;;;;;;
2023/12/12 06:45:51;;;;;;;26.23;5.45;;;;;;;6.68;100.00;100481.28;6261248;22;20025;-96
2023/12/12 06:48:40;;;;;;;28.58;5.57;;;;;;;6.85;100.00;100510.53;6284292;22;20010;-96
2023/12/12 06:51:31;;;;;;;31.42;6.10;;;;;;;6.56;100.00;100460.03;6283765;22;20061;-96
2023/12/12 06:54:08;;;;;;;27.55;5.93;;;;;;;6.72;100.00;100474.34;6299770;22;20074;-96
2023/12/12 06:57:03;;;;;;;24.33;5.88;;;;;;;6.89;100.00;100493.94;6266959;22;20026;-96
2023/12/12 06:59:51;;;;;;;28.65;5.40;;;;;;;6.53;100.00;100425.84;6291244;22;20488;-96
2023/12/12 07:02:55;;;;;;;27.60;6.10;;;;;;;6.50;100.00;100415.28;6298667;22;20003;-96
2023/12/12 07:05:43;;;;;;;30.38;5.30;;;;;;;6.96;100.00;100495.84;6336875;22;20015;-96
2023/12/12 07:08:39;;;;;;;28.60;5.78;;;;;;;6.98;100.00;100487.97;6288976;22;19994;-96
2023/12/12 07:12:12;;;;;;;;;;;;;;;;;;;;;
2023/12/12 07:21:42;;;;;;;24.67;5.88;;;;;;;6.48;100.00;100393.38;6266649;22;20061;-96
2023/12/12 07:24:39;;;;;;;25.80;5.00;;;;;;;6.92;100.00;100472.13;6289191;22;20007;-96
2023/12/12 07:33:54;;;;;;;26.40;6.00;;;;;;;6.93;100.00;100471.25;6283705;22;20094;-96
2023/12/12 07:37:01;;;;;;;25.23;5.10;;;;;;;6.66;100.00;100417.34;6282458;22;20003;-96
2023/12/12 07:40:06;;;;;;;27.05;5.18;;;;;;;6.72;100.00;100420.13;6218863;22;20016;-96
2023/12/12 07:46:53;;;;;;;31.40;5.72;;;;;;;7.05;100.00;100463.63;6293087;22;20389;-96
2023/12/12 07:50:01;;;;;;;24.35;5.22;;;;;;;6.68;100.00;100388.50;6254058;22;20039;-96
2023/12/12 07:52:58;;;;;;;;;;;;;;;;;;;;;
2023/12/12 07:56:20;;;;;;;;;;;;;;;;;;;;;
2023/12/12 07:58:56;;;;;;;22.60;5.10;;;;;;;6.76;100.00;100356.25;6321981;22;20015;-96
2023/12/12 08:02:13;;;;;;;26.02;5.22;;;;;;;6.99;100.00;100387.34;6311504;22;20014;-96
2023/12/12 08:11:27;;;;;;;25.00;5.32;;;;;;;6.95;100.00;100356.63;6241834;22;20011;-96
2023/12/12 08:14:41;;;;;;;31.52;5.70;;;;;;;7.12;100.00;100364.78;6285150;22;20003;-96
2023/12/12 08:17:45;;;;;;;25.55;5.70;;;;;;;7.14;100.00;100358.69;6283291;22;20007;-96
2023/12/12 08:20:45;;;;;;;27.10;5.53;;;;;;;7.39;100.00;100369.59;6293902;22;20080;-96
2023/12/12 08:27:02;;;;;;;24.30;5.28;;;;;;;7.76;100.00;100350.91;6252224;22;20011;-95
2023/12/12 08:34:04;;;;;;;;;;;;;;;;;;;;;
2023/12/12 08:37:11;;;;;;;22.90;4.82;;;;;;;8.82;100.00;100398.72;6261709;22;20078;-95
2023/12/12 08:39:51;;;;;;;25.50;5.45;;;;;;;8.94;100.00;100385.66;6281628;22;20003;-93
2023/12/12 08:43:01;;;;;;;15.32;4.97;;;;;;;9.26;100.00;100393.91;6281168;22;20011;-92
2023/12/12 08:48:38;;;;;;;20.23;5.45;;;;;;;9.38;100.00;100319.25;6269398;22;20050;-93
2023/12/12 08:51:26;;;;;;;21.55;4.63;;;;;;;9.56;100.00;100314.13;6309030;22;20003;-91
2023/12/12 08:54:38;;;;;;;21.23;5.85;;;;;;;10.08;100.00;100366.31;6266012;22;20138;-96
2023/12/12 08:57:37;;;;;;;22.23;5.10;;;;;;;10.35;100.00;100382.31;6278969;22;20353;-95
2023/12/12 09:01:03;;;;;;;19.90;4.45;;;;;;;10.28;100.00;100355.00;6263846;22;20030;-95
2023/12/12 09:03:36;;;;;;;22.10;4.10;;;;;;;10.32;100.00;100332.13;6274185;22;20230;-94
2023/12/12 09:06:07;;;;;;;16.13;4.32;;;;;;;10.72;100.00;100385.09;6277369;22;20004;-91
2023/12/12 09:08:42;;;;;;;23.42;4.57;;;;;;;10.75;100.00;100378.06;6276128;22;20011;-91
2023/12/12 09:11:24;;;;;;;19.77;4.40;;;;;;;10.52;100.00;100333.06;6277785;22;20006;-92
2023/12/12 09:13:57;;;;;;;25.35;4.75;;;;;;;10.79;100.00;100334.00;6253696;22;20077;-93
2023/12/12 09:16:36;;;;;;;22.45;4.35;;;;;;;10.96;100.00;100334.00;6278265;22;20007;-93
2023/12/12 09:19:11;;;;;;;16.40;4.15;;;;;;;11.32;100.00;100367.53;6276365;22;20033;-90
2023/12/12 09:21:41;;;;;;;23.50;4.40;;;;;;;11.40;100.00;100349.03;6276191;22;20006;-90
2023/12/12 09:24:15;;;;;;;18.02;4.50;;;;;;;11.32;100.00;100298.78;6277922;22;20449;-91
2023/12/12 09:26:40;;;;;;;18.75;4.72;;;;;;;11.77;100.00;100324.25;6277467;22;20008;-91
2023/12/12 09:29:06;;;;;;;15.57;3.85;;;;;;;11.76;99.48;100277.50;6278017;22;20026;-90
2023/12/12 09:31:44;;;;;;;17.02;4.18;;;;;;;12.10;96.87;100311.81;6277905;22;20004;-90
2023/12/12 09:34:09;;;;;;;16.05;3.90;;;;;;;12.26;95.41;100300.28;6276345;22;20079;-89
2023/12/12 09:36:42;;;;;;;16.80;4.38;;;;;;;12.59;94.84;100318.63;6276054;22;20371;-93
2023/12/12 09:39:10;;;;;;;18.05;3.90;;;;;;;12.54;94.23;100306.28;6286248;22;20004;-89
2023/12/12 09:41:36;;;;;;;20.17;4.35;;;;;;;12.70;93.79;100330.06;6278890;22;20004;-91
2023/12/12 09:44:12;;;;;;;18.33;3.70;;;;;;;12.43;93.12;100273.69;6276453;22;20069;-88
2023/12/12 09:46:38;;;;;;;17.85;4.10;;;;;;;12.61;95.54;100298.31;6276276;22;20054;-89
2023/12/12 09:49:06;;;;;;;14.80;3.97;;;;;;;12.57;93.62;100299.22;6282943;22;20334;-90
2023/12/12 09:51:32;;;;;;;18.50;4.10;;;;;;;12.49;93.63;100293.97;6276444;22;20392;-89
2023/12/12 09:53:57;;;;;;;18.00;3.95;;;;;;;12.43;92.72;100289.59;6292106;22;20043;-89
2023/12/12 09:56:34;;;;;;;15.00;4.10;;;;;;;12.35;94.45;100277.28;6309073;22;20109;-91
2023/12/12 09:59:00;;;;;;;17.35;4.38;;;;;;;12.24;94.51;100240.25;6282298;22;20030;-89
2023/12/12 10:01:30;;;;;;;18.65;4.18;;;;;;;12.24;93.91;100261.44;6307841;22;20004;-90
2023/12/12 10:03:55;;;;;;;17.88;4.10;;;;;;;12.02;94.65;100232.41;6282455;22;20108;-90
2023/12/12 10:06:27;;;;;;;17.73;4.00;;;;;;;12.26;96.11;100289.69;6281899;22;20394;-89
2023/12/12 10:08:52;;;;;;;13.15;4.75;;;;;;;11.94;96.26;100234.22;6309233;22;20103;-90
2023/12/12 10:11:19;;;;;;;20.70;4.40;;;;;;;11.94;97.18;100217.44;6309661;22;20425;-90
2023/12/12 10:13:53;;;;;;;11.98;3.70;;;;;;;12.32;96.68;100274.63;6310771;22;20003;-90
2023/12/12 10:16:19;;;;;;;16.60;3.40;;;;;;;12.24;97.31;100222.56;6282205;22;20030;-89
2023/12/12 10:18:46;;;;;;;14.93;3.42;;;;;;;12.59;95.74;100242.69;6307378;22;20329;-87
2023/12/12 10:21:30;;;;;;;12.10;3.42;;;;;;;12.83;95.30;100253.97;6280310;22;20389;-86
2023/12/12 10:23:56;;;;;;;13.55;3.65;;;;;;;12.80;94.51;100233.66;6308900;22;20422;-87
2023/12/12 10:26:29;;;;;;;11.25;3.47;;;;;;;12.78;93.66;100211.59;6255541;22;20085;-87
2023/12/12 10:28:56;;;;;;;12.07;3.78;;;;;;;13.04;93.13;100244.06;6308025;22;20088;-86
2023/12/12 10:31:22;;;;;;;12.52;4.05;;;;;;;12.72;93.20;100209.00;6308894;22;20014;-87
2023/12/12 10:33:48;;;;;;;10.45;3.28;;;;;;;12.95;92.44;100224.72;6281476;22;20093;-86
2023/12/12 10:36:14;;;;;;;13.55;3.50;;;;;;;13.07;92.91;100245.81;6309030;22;20062;-85
2023/12/12 10:38:39;;;;;;;9.88;3.45;;;;;;;13.17;92.36;100238.66;6281731;22;20003;-88
2023/12/12 10:41:16;;;;;;;13.23;3.67;;;;;;;13.24;92.22;100243.03;6307017;22;20086;-85
2023/12/12 10:43:43;;;;;;;12.73;3.60;;;;;;;13.38;91.84;100238.47;6307098;22;20063;-87
2023/12/12 10:46:11;;;;;;;9.60;3.13;;;;;;;13.45;91.71;100234.00;6307262;22;19999;-88
2023/12/12 10:48:52;;;;;;;11.02;3.20;;;;;;;13.44;89.87;100222.47;6307213;22;20020;-89
2023/12/12 10:51:18;;;;;;;9.45;3.35;;;;;;;13.46;90.40;100226.00;6307755;22;19999;-85
2023/12/12 10:53:45;;;;;;;10.88;2.80;;;;;;;13.32;91.08;100229.69;6306698;22;20437;-87
2023/12/12 10:56:13;;;;;;;13.27;3.13;;;;;;;13.08;90.88;100228.13;6279923;22;20115;-87
2023/12/12 10:58:40;;;;;;;11.77;2.95;;;;;;;12.96;92.31;100219.38;6307094;22;20007;-85
2023/12/12 11:01:08;;;;;;;10.48;2.70;;;;;;;12.59;93.12;100173.78;6279529;22;20007;-88
2023/12/12 11:03:35;;;;;;;8.93;2.97;;;;;;;12.73;93.48;100211.63;6308049;22;20082;-88
2023/12/12 11:06:01;;;;;;;13.48;3.20;;;;;;;12.64;94.05;100190.50;6256711;22;20007;-86
2023/12/12 11:08:27;;;;;;;11.60;2.90;;;;;;;12.50;93.77;100193.28;6284026;22;20072;-86
2023/12/12 11:10:54;;;;;;;9.57;2.70;;;;;;;12.48;94.92;100196.81;6282067;22;20011;-87
2023/12/12 11:13:22;;;;;;;7.03;2.50;;;;;;;12.45;94.34;100173.84;6282004;22;20007;-88
2023/12/12 11:15:50;;;;;;;8.05;3.03;;;;;;;12.40;95.02;100174.78;6308830;22;20031;-90
2023/12/12 11:18:20;;;;;;;9.02;2.63;;;;;;;12.11;94.96;100162.63;6261628;22;20007;-87
2023/12/12 11:20:46;;;;;;;8.02;2.60;;;;;;;12.10;95.40;100158.22;6309346;22;19999;-88
2023/12/12 11:23:49;;;;;;;8.60;2.85;;;;;;;12.06;96.76;100160.91;6282220;22;20480;-88
2023/12/12 11:26:15;;;;;;;;;;;;;;;12.11;97.23;100159.09;6309736;22;20014;-90
2023/12/12 11:28:41;;;;;;;9.80;2.83;;;;;;;11.93;97.49;100131.84;6281544;22;19911;-90
2023/12/12 11:31:07;;;;;;;12.32;2.92;;;;;;;12.05;98.10;100160.03;6309060;22;20413;-86
2023/12/12 11:33:34;;;;;;;12.35;3.28;;;;;;;12.02;97.94;100146.78;6308617;22;20098;-89
2023/12/12 11:36:00;;;;;;;10.85;3.08;;;;;;;11.82;98.33;100119.53;6308338;22;20007;-87
2023/12/12 11:38:33;;;;;;;9.73;3.20;;;;;;;11.96;98.64;100149.50;6308046;22;20014;-89
2023/12/12 11:41:17;;;;;;;10.18;3.42;;;;;;;11.67;98.33;100116.09;6308395;22;20017;-89
2023/12/12 11:43:43;;;;;;;12.20;3.60;;;;;;;11.63;99.09;100111.69;6308804;22;19999;-88
2023/12/12 11:46:19;;;;;;;12.55;3.53;;;;;;;11.67;99.84;100126.69;6308272;22;20016;-88
2023/12/12 11:48:45;;;;;;;12.93;3.22;;;;;;;11.49;100.00;100100.31;6308708;22;20033;-86
2023/12/12 11:51:35;;;;;;;8.25;2.88;;;;;;;11.66;100.00;100121.41;6308723;22;20375;-91
2023/12/12 11:54:18;;;;;;;9.05;2.95;;;;;;;11.56;100.00;100106.44;6309105;22;20015;-90
2023/12/12 11:56:43;;;;;;;9.13;3.40;;;;;;;11.40;100.00;100090.66;6311674;22;20003;-90
2023/12/12 11:59:09;;;;;;;11.70;3.33;;;;;;;11.49;100.00;100111.78;6309042;22;20441;-90
2023/12/12 12:01:35;;;;;;;11.25;3.63;;;;;;;11.23;100.00;100060.78;6310548;22;20007;-90
2023/12/12 12:04:00;;;;;;;9.98;3.22;;;;;;;11.23;100.00;100053.72;6308847;22;20007;-90
2023/12/12 12:06:25;;;;;;;12.15;3.30;;;;;;;11.47;100.00;100084.44;6308883;22;20008;-90
2023/12/12 12:08:51;;;;;;;10.05;3.35;;;;;;;11.46;100.00;100085.31;6281607;22;20010;-91
2023/12/12 12:11:16;;;;;;;7.65;2.95;;;;;;;11.36;100.00;100066.88;6282525;22;20014;-91
2023/12/12 12:13:43;;;;;;;7.72;3.08;;;;;;;11.37;100.00;100079.22;6308769;22;20010;-90
2023/12/12 12:16:10;;;;;;;9.73;3.08;;;;;;;11.31;100.00;100066.91;6281500;22;20425;-90
2023/12/12 12:18:36;;;;;;;9.32;3.15;;;;;;;11.42;100.00;100080.94;6309851;22;20015;-90
2023/12/12 12:21:07;;;;;;;8.40;2.85;;;;;;;11.41;100.00;100083.59;6255765;22;20356;-90
2023/12/12 12:23:37;;;;;;;9.85;2.70;;;;;;;11.21;100.00;100050.19;6308576;22;20086;-91
2023/12/12 12:26:03;;;;;;;7.28;3.00;;;;;;;11.30;100.00;100046.59;6308887;22;19999;-90
2023/12/12 12:28:33;;;;;;;9.98;3.00;;;;;;;11.35;100.00;100065.09;6308434;22;20429;-91
2023/12/12 12:30:59;;;;;;;7.22;2.90;;;;;;;11.31;100.00;100051.03;6269420;22;20011;-90
2023/12/12 12:33:35;;;;;;;9.63;3.20;;;;;;;11.33;100.00;100037.78;6308412;22;20011;-90
2023/12/12 12:36:01;;;;;;;8.48;3.45;;;;;;;11.44;100.00;100041.28;6281697;22;20038;-90
2023/12/12 12:38:28;;;;;;;7.85;3.38;;;;;;;11.46;100.00;100043.00;6281402;22;20030;-90
2023/12/12 12:40:54;;;;;;;8.13;3.10;;;;;;;11.46;100.00;100043.00;6308611;22;20035;-90
2023/12/12 12:43:22;;;;;;;8.70;3.35;;;;;;;11.33;100.00;100021.91;6308272;22;20014;-90
2023/12/12 12:45:48;;;;;;;10.07;3.22;;;;;;;11.44;100.00;100034.22;6308745;22;20003;-90
2023/12/12 12:48:15;;;;;;;7.80;2.72;;;;;;;11.29;100.00;100024.56;6280653;22;20098;-90
2023/12/12 12:50:49;;;;;;;9.32;3.10;;;;;;;11.35;100.00;100028.97;6307864;22;20014;-89
2023/12/12 12:53:15;;;;;;;9.95;3.40;;;;;;;11.32;100.00;100021.03;6308351;22;20011;-88
2023/12/12 12:55:42;;;;;;;7.93;3.03;;;;;;;11.25;100.00;100008.72;6280924;22;20013;-87
2023/12/12 12:58:09;;;;;;;11.10;3.15;;;;;;;11.24;100.00;100005.22;6308468;22;20030;-86
2023/12/12 13:00:37;;;;;;;7.80;2.90;;;;;;;11.31;100.00;100008.72;6309240;22;20037;-89
2023/12/12 13:03:03;;;;;;;10.40;3.28;;;;;;;11.34;100.00;100008.69;6281276;22;20330;-88
2023/12/12 13:05:29;;;;;;;10.38;3.50;;;;;;;11.31;100.00;100005.19;6281703;22;20014;-89
2023/12/12 13:07:55;;;;;;;9.88;3.03;;;;;;;11.24;100.00;99996.41;6308129;22;20060;-87
2023/12/12 13:10:20;;;;;;;8.82;3.35;;;;;;;11.20;100.00;99987.59;6307247;22;20368;-88
2023/12/12 13:12:46;;;;;;;8.60;3.00;;;;;;;11.08;100.00;99968.28;6254952;22;20003;-88
2023/12/12 13:15:11;;;;;;;7.95;3.15;;;;;;;11.21;100.00;99991.13;6311489;22;20011;-88
2023/12/12 13:17:38;;;;;;;8.32;3.15;;;;;;;11.06;100.00;99964.78;6280757;22;20011;-90
2023/12/12 13:20:09;;;;;;;6.18;3.20;;;;;;;11.09;100.00;99978.88;6280992;22;20030;-89
2023/12/12 13:22:42;;;;;;;9.27;3.17;;;;;;;10.95;100.00;99959.53;6308182;22;20014;-88
2023/12/12 13:25:09;;;;;;;6.88;3.40;;;;;;;10.87;100.00;99954.28;6255383;22;20086;-90
2023/12/12 13:27:35;;;;;;;9.07;3.35;;;;;;;10.91;100.00;99961.31;6230133;22;20034;-89
2023/12/12 13:30:01;;;;;;;6.35;3.22;;;;;;;10.90;100.00;99949.00;6306843;22;20060;-90
2023/12/12 13:32:26;;;;;;;7.85;3.20;;;;;;;10.89;100.00;99946.38;6307169;22;20007;-91
2023/12/12 13:34:52;;;;;;;9.48;3.30;;;;;;;10.96;100.00;99961.28;6308282;22;20011;-90
2023/12/12 13:37:18;;;;;;;10.32;3.25;;;;;;;10.92;100.00;99959.53;6308720;22;19999;-91
2023/12/12 13:39:44;;;;;;;6.15;3.53;;;;;;;10.79;100.00;99945.50;6281465;22;20018;-90
2023/12/12 13:42:09;;;;;;;8.15;3.17;;;;;;;10.89;100.00;99956.94;6282601;22;20003;-90
2023/12/12 13:44:35;;;;;;;9.93;3.35;;;;;;;10.87;100.00;99946.34;6287040;22;20019;-90
2023/12/12 13:47:00;;;;;;;6.90;3.50;;;;;;;10.82;100.00;99927.00;6282253;22;20011;-90
2023/12/12 13:49:25;;;;;;;8.57;3.42;;;;;;;10.78;100.00;99919.97;6282791;22;20086;-89
2023/12/12 13:51:51;;;;;;;6.90;3.10;;;;;;;10.83;100.00;99944.63;6257473;22;20426;-90
2023/12/12 13:54:16;;;;;;;7.68;3.38;;;;;;;10.77;100.00;99934.97;6278571;22;20016;-89
2023/12/12 13:56:43;;;;;;;7.45;3.60;;;;;;;10.83;100.00;99930.53;6258307;22;20003;-89
2023/12/12 13:59:08;;;;;;;11.20;3.72;;;;;;;10.81;100.00;99933.19;6290878;22;20027;-91
2023/12/12 14:01:36;;;;;;;8.52;3.47;;;;;;;10.78;100.00;99922.63;6236311;22;20008;-90
2023/12/12 14:04:02;;;;;;;8.80;3.50;;;;;;;10.81;100.00;99933.19;6292951;22;20056;-89
2023/12/12 14:06:27;;;;;;;6.07;3.53;;;;;;;10.71;100.00;99916.50;6266894;22;20015;-90
2023/12/12 14:08:53;;;;;;;8.95;3.67;;;;;;;10.74;100.00;99921.75;6251705;22;20086;-91
2023/12/12 14:11:24;;;;;;;6.72;3.60;;;;;;;10.59;100.00;99894.56;6276572;22;20372;-90
2023/12/12 14:13:50;;;;;;;11.43;3.80;;;;;;;10.86;100.00;99927.88;6282634;22;20002;-90
2023/12/12 14:16:15;;;;;;;9.30;3.65;;;;;;;10.71;100.00;99892.72;6277125;22;20429;-90
2023/12/12 14:18:41;;;;;;;10.32;4.47;;;;;;;10.81;100.00;99912.03;6275370;22;20010;-90
2023/12/12 14:21:10;;;;;;;7.47;3.70;;;;;;;10.81;100.00;99905.88;6276827;22;20367;-90
2023/12/12 14:23:35;;;;;;;6.35;3.53;;;;;;;10.87;100.00;99909.34;6276763;22;20010;-90
2023/12/12 14:26:00;;;;;;;9.20;3.78;;;;;;;10.84;100.00;99890.91;6277966;22;20004;-89
2023/12/12 14:28:32;;;;;;;10.35;3.33;;;;;;;10.88;100.00;99892.63;6280673;22;20030;-96
2023/12/12 14:30:58;;;;;;;8.27;3.70;;;;;;;10.92;100.00;99893.47;6277064;22;20019;-95
2023/12/12 14:33:23;;;;;;;7.68;3.47;;;;;;;10.90;100.00;99885.56;6276088;22;20011;-90
2023/12/12 14:35:51;;;;;;;6.78;3.45;;;;;;;10.83;100.00;99877.66;6276684;22;20030;-95
2023/12/12 14:41:00;;;;;;;;;;;;;;;;;;;;;
2023/12/12 14:43:52;;;;;;;7.82;3.80;;;;;;;10.52;100.00;99830.28;6311208;22;20097;-95
2023/12/12 14:47:00;;;;;;;;;;;;;;;;;;;;;
2023/12/12 14:58:51;;;;;;;9.50;4.00;;;;;;;10.50;100.00;99793.34;6291451;22;20027;-96
2023/12/12 15:05:19;;;;;;;8.00;4.13;;;;;;;10.68;100.00;99820.53;6292138;22;20087;-94
2023/12/12 15:07:57;;;;;;;5.75;3.90;;;;;;;10.42;100.00;99781.06;6307043;22;20038;-94
2023/12/12 15:10:57;;;;;;;9.18;4.07;;;;;;;10.58;100.00;99813.53;6308700;22;20333;-95
2023/12/12 15:13:37;;;;;;;7.20;3.97;;;;;;;10.68;100.00;99839.03;6310985;22;20003;-94
2023/12/12 15:16:17;;;;;;;8.25;4.57;;;;;;;10.51;100.00;99802.13;6283005;22;20042;-96
2023/12/12 15:19:15;;;;;;;;;;;;;;;;;;;;;
2023/12/12 15:24:40;;;;;;;8.35;4.38;;;;;;;10.74;100.00;99845.13;6291852;22;20015;-94
2023/12/12 15:27:15;;;;;;;6.43;4.40;;;;;;;10.36;100.00;99789.88;6283917;22;20015;-95
2023/12/12 15:29:40;;;;;;;7.93;4.90;;;;;;;10.31;100.00;99781.09;6309918;22;20056;-95
2023/12/12 15:32:08;;;;;;;9.10;5.35;;;;;;;10.65;100.00;99837.25;6308371;22;20011;-91
2023/12/12 15:35:01;;;;;;;;;;;;;;;;;;;;;
2023/12/12 15:37:32;;;;;;;8.80;4.97;;;;;;;10.36;100.00;99787.22;6315598;22;20031;-93
2023/12/12 15:42:47;;;;;;;;;;;;;;;;;;;;;
2023/12/12 15:45:14;;;;;;;9.90;5.35;;;;;;;10.72;100.00;99807.28;6299395;22;20047;-95
2023/12/12 15:47:45;;;;;;;8.20;5.47;;;;;;;10.50;100.00;99766.91;6321212;22;20317;-95
2023/12/12 15:50:21;;;;;;;9.55;5.40;;;;;;;10.51;100.00;99765.16;6319470;22;20022;-96
2023/12/12 15:52:46;;;;;;;9.02;5.43;;;;;;;10.81;100.00;99797.53;6320011;22;20012;-94
2023/12/12 15:55:14;;;;;;;6.82;5.28;;;;;;;10.58;100.00;99768.63;6346909;22;20007;-95
2023/12/12 15:57:43;;;;;;;10.48;5.38;;;;;;;10.78;100.00;99793.13;6321131;22;20014;-94
2023/12/12 16:00:15;;;;;;;8.10;5.47;;;;;;;10.78;100.00;99799.31;6353052;22;20007;-93
2023/12/12 16:02:41;;;;;;;12.23;5.28;;;;;;;10.80;100.00;99799.31;6348359;22;20010;-95
2023/12/12 16:05:10;;;;;;;8.10;5.25;;;;;;;10.79;100.00;99792.25;6323415;22;20067;-96
2023/12/12 16:07:36;;;;;;;9.88;5.40;;;;;;;10.80;100.00;99795.78;6350751;22;20003;-95
2023/12/12 16:10:03;;;;;;;8.82;5.22;;;;;;;10.53;100.00;99756.34;6353604;22;20087;-96
2023/12/12 16:12:28;;;;;;;10.55;5.18;;;;;;;10.75;100.00;99788.78;6319223;22;20027;-93
2023/12/12 16:14:54;;;;;;;7.50;5.30;;;;;;;10.72;100.00;99783.50;6346770;22;20061;-96
2023/12/12 16:17:19;;;;;;;12.23;5.38;;;;;;;10.67;100.00;99777.38;6319193;22;20013;-94
2023/12/12 16:19:44;;;;;;;7.25;4.93;;;;;;;10.70;100.00;99777.34;6293417;22;20063;-96
2023/12/12 16:22:10;;;;;;;9.75;5.40;;;;;;;10.72;100.00;99769.41;6319183;22;20318;-96
2023/12/12 16:24:35;;;;;;;8.20;5.38;;;;;;;10.68;100.00;99757.13;6297490;22;20011;-96
2023/12/12 16:27:01;;;;;;;9.07;5.50;;;;;;;10.66;100.00;99743.03;6349654;22;20002;-95
2023/12/12 16:29:26;;;;;;;8.40;5.53;;;;;;;10.63;100.00;99743.06;6350892;22;20144;-96
2023/12/12 16:31:52;;;;;;;9.93;5.50;;;;;;;10.64;100.00;99740.41;6350769;22;20011;-93
2023/12/12 16:34:17;;;;;;;8.93;5.40;;;;;;;10.66;100.00;99737.75;6298263;22;20010;-95
2023/12/12 16:36:42;;;;;;;9.32;6.13;;;;;;;10.67;100.00;99740.38;6297518;22;20010;-96
2023/12/12 16:39:08;;;;;;;9.98;5.68;;;;;;;10.65;100.00;99738.63;6350347;22;20078;-95
2023/12/12 16:41:33;;;;;;;12.00;6.00;;;;;;;10.55;100.00;99729.91;6320603;22;20013;-96
2023/12/12 16:43:59;;;;;;;9.75;6.05;;;;;;;10.60;100.00;99753.66;6321112;22;20042;-95
2023/12/12 16:46:24;;;;;;;9.93;5.57;;;;;;;10.56;100.00;99741.34;6297106;22;20041;-95
2023/12/12 16:48:50;;;;;;;7.30;4.72;;;;;;;10.52;100.00;99746.66;6297963;22;20089;-95
2023/12/12 16:51:15;;;;;;;13.13;4.95;;;;;;;10.55;100.00;99752.81;6320404;22;20302;-95
2023/12/12 16:53:44;;;;;;;10.35;5.00;;;;;;;10.42;100.00;99728.25;6319275;22;20057;-93
2023/12/12 16:56:10;;;;;;;7.85;3.83;;;;;;;10.49;100.00;99738.75;6293410;22;20003;-91